Britney Lee — WDC2895 — position and weather

sailwx.info

Track history (hours):
 
Tides and Currents Weather Stations Pressure Air Temp Water Temp Dewpoint Dewpoint Depression Visibility Wind Speed Wind Dir Waves Ship Positions

Britney Lee

Owner: Western Rivers Boat Management, Inc., Paducah, KY. More information available from US FCC via Universal Licensing System and Coast Guard Vessel Documentation Center.

Last reported at 2016-Dec-02 07:31 UTC. Time now 2016-Dec-09 07:49 UTC.
Position N 32°40' W 091°08'.

Length 44 m; draft 3 m.

Type: Tow > 200 m length. MMSI: 367129650.

Date/timePositionNaut miles runAvg speedWind from/ knotsBaromVisibWave heightAir tempDewpointWater temp
2016-Dec-02 07:31N 32°40' W 091°08'4 4.5
2016-Dec-02 06:33N 32°35' W 091°08'5 4.5
2016-Dec-02 05:27N 32°31' W 091°07'5 5.1
2016-Dec-02 04:33N 32°27' W 091°04'5 4.6
2016-Dec-02 03:33N 32°24' W 090°59'4 3.9
2016-Dec-02 02:34N 32°21' W 090°57'3 3.3
2016-Dec-02 01:34N 32°18' W 090°55'5 4.8
2016-Dec-02 00:33N 32°14' W 090°59'5 5.2
2016-Dec-01 23:33N 32°09' W 091°00'  
2016-Nov-28 07:21N 29°58' W 090°18'1 1.0
2016-Nov-28 06:33N 29°58' W 090°17'0 0.1
2016-Nov-28 05:19N 29°58' W 090°17'0 0.1
2016-Nov-28 04:33N 29°58' W 090°17'1 0.6
2016-Nov-28 03:12N 29°58' W 090°16'1 1.0
2016-Nov-28 02:33N 29°58' W 090°16'4 4.1
2016-Nov-28 01:32N 29°55' W 090°12'3 3.4
2016-Nov-28 00:33N 29°57' W 090°09'6 0.3
2016-Nov-27 07:27N 29°57' W 090°02'6 5.6
2016-Nov-27 06:27N 29°55' W 090°08'3 3.8
2016-Nov-27 05:33N 29°55' W 090°12'  
2016-Nov-24 08:33N 32°02' W 091°04'6 6.0
2016-Nov-24 07:33N 32°07' W 091°07'4 3.8
2016-Nov-24 06:33N 32°07' W 091°02'7 6.5
2016-Nov-24 05:33N 32°13' W 090°59'7 7.0
2016-Nov-24 04:34N 32°19' W 090°54'5 5.3
2016-Nov-24 03:33N 32°21' W 090°60'6 5.5
2016-Nov-24 02:34N 32°26' W 091°03'6 5.8
2016-Nov-24 01:33N 32°31' W 091°06'7 6.7
2016-Nov-24 00:34N 32°37' W 091°09'  
Track history (hours):
 
Tides and Currents Weather Stations Pressure Air Temp Water Temp Dewpoint Dewpoint Depression Visibility Wind Speed Wind Dir Waves Ship Positions

Britney Lee

Owner: Western Rivers Boat Management, Inc., Paducah, KY. More information available from US FCC via Universal Licensing System and Coast Guard Vessel Documentation Center.

Last reported at 2016-Dec-02 07:31 UTC. Time now 2016-Dec-09 07:49 UTC.
Position N 32°40' W 091°08'.

Length 44 m; draft 3 m.

Type: Tow > 200 m length. MMSI: 367129650.

Date/timePositionNaut miles runAvg speedWind from/ knotsBaromVisibWave heightAir tempDewpointWater temp
2016-Dec-02 07:31N 32°40' W 091°08'4 4.5
2016-Dec-02 06:33N 32°35' W 091°08'5 4.5
2016-Dec-02 05:27N 32°31' W 091°07'5 5.1
2016-Dec-02 04:33N 32°27' W 091°04'5 4.6
2016-Dec-02 03:33N 32°24' W 090°59'4 3.9
2016-Dec-02 02:34N 32°21' W 090°57'3 3.3
2016-Dec-02 01:34N 32°18' W 090°55'5 4.8
2016-Dec-02 00:33N 32°14' W 090°59'5 5.2
2016-Dec-01 23:33N 32°09' W 091°00'  
2016-Nov-28 07:21N 29°58' W 090°18'1 1.0
2016-Nov-28 06:33N 29°58' W 090°17'0 0.1
2016-Nov-28 05:19N 29°58' W 090°17'0 0.1
2016-Nov-28 04:33N 29°58' W 090°17'1 0.6
2016-Nov-28 03:12N 29°58' W 090°16'1 1.0
2016-Nov-28 02:33N 29°58' W 090°16'4 4.1
2016-Nov-28 01:32N 29°55' W 090°12'3 3.4
2016-Nov-28 00:33N 29°57' W 090°09'6 0.3
2016-Nov-27 07:27N 29°57' W 090°02'6 5.6
2016-Nov-27 06:27N 29°55' W 090°08'3 3.8
2016-Nov-27 05:33N 29°55' W 090°12'  
2016-Nov-24 08:33N 32°02' W 091°04'6 6.0
2016-Nov-24 07:33N 32°07' W 091°07'4 3.8
2016-Nov-24 06:33N 32°07' W 091°02'7 6.5
2016-Nov-24 05:33N 32°13' W 090°59'7 7.0
2016-Nov-24 04:34N 32°19' W 090°54'5 5.3
2016-Nov-24 03:33N 32°21' W 090°60'6 5.5
2016-Nov-24 02:34N 32°26' W 091°03'6 5.8
2016-Nov-24 01:33N 32°31' W 091°06'7 6.7
2016-Nov-24 00:34N 32°37' W 091°09'  

Dump ship's entire track history